createdAt,value
2019-04-07T00:00:04.968Z,12.35
2019-04-07T00:03:12.844Z,12.55
2019-04-07T00:06:19.058Z,12.70
2019-04-07T00:09:24.833Z,13.35
2019-04-07T00:12:32.245Z,11.70
2019-04-07T00:15:38.046Z,12.13
2019-04-07T00:18:44.314Z,12.00
2019-04-07T00:21:50.110Z,12.28
2019-04-07T00:24:55.833Z,12.13
2019-04-07T00:28:01.864Z,11.95
2019-04-07T00:31:08.440Z,11.55
2019-04-07T00:34:15.953Z,11.57
2019-04-07T00:37:21.882Z,12.15
2019-04-07T00:40:28.336Z,11.33
2019-04-07T00:43:34.382Z,11.30
2019-04-07T00:46:40.012Z,12.05
2019-04-07T00:49:45.788Z,12.35
2019-04-07T00:52:51.610Z,11.80
2019-04-07T00:55:58.369Z,11.63
2019-04-07T00:59:04.316Z,11.08
2019-04-07T01:02:10.592Z,10.48
2019-04-07T01:05:16.837Z,10.85
2019-04-07T01:08:22.831Z,11.63
2019-04-07T01:11:28.893Z,12.60
2019-04-07T01:14:34.678Z,12.50
2019-04-07T01:17:40.314Z,12.60
2019-04-07T01:20:46.743Z,12.35
2019-04-07T01:23:52.437Z,12.88
2019-04-07T01:26:59.093Z,12.95
2019-04-07T01:30:06.200Z,13.43
2019-04-07T01:33:12.743Z,12.70
2019-04-07T01:36:18.570Z,13.58
2019-04-07T01:39:24.326Z,13.90
2019-04-07T01:42:48.805Z,13.93
2019-04-07T01:46:16.482Z,13.15
2019-04-07T01:49:28.774Z,13.38
2019-04-07T01:52:40.248Z,13.53
2019-04-07T01:56:14.096Z,13.98
2019-04-07T01:59:57.339Z,13.22
2019-04-07T02:03:28.043Z,13.85
2019-04-07T02:06:52.902Z,13.68
2019-04-07T02:10:16.264Z,14.40
2019-04-07T02:13:43.913Z,14.28
2019-04-07T02:17:11.940Z,13.43
2019-04-07T02:20:59.030Z,12.95
2019-04-07T02:24:32.517Z,14.05
2019-04-07T02:28:00.068Z,14.13
2019-04-07T02:31:33.497Z,13.80
2019-04-07T02:35:12.174Z,14.20
2019-04-07T02:38:30.206Z,13.58
2019-04-07T02:41:46.627Z,14.10
2019-04-07T02:45:09.729Z,13.55
2019-04-07T02:48:35.107Z,13.60
2019-04-07T02:52:05.823Z,13.03
2019-04-07T02:55:37.429Z,13.32
2019-04-07T02:59:10.918Z,13.62
2019-04-07T03:02:43.624Z,13.40
2019-04-07T03:06:37.275Z,12.93
2019-04-07T03:09:45.488Z,12.70
2019-04-07T03:13:16.842Z,13.35
2019-04-07T03:16:37.525Z,13.53
2019-04-07T03:19:52.161Z,13.10
2019-04-07T03:23:17.568Z,13.83
2019-04-07T03:26:54.208Z,12.37
2019-04-07T03:30:06.478Z,12.98
2019-04-07T03:33:37.334Z,13.58
2019-04-07T03:37:32.235Z,12.73
2019-04-07T03:40:30.723Z,12.82
2019-04-07T03:43:44.277Z,13.45
2019-04-07T03:47:09.144Z,13.38
2019-04-07T03:50:40.811Z,13.22
2019-04-07T03:54:05.461Z,13.20
2019-04-07T03:57:24.108Z,13.43
2019-04-07T04:01:30.209Z,12.95
2019-04-07T04:04:47.207Z,13.80
2019-04-07T04:08:11.770Z,13.15
2019-04-07T04:11:34.277Z,12.58
2019-04-07T04:14:48.657Z,13.55
2019-04-07T04:22:30.734Z,13.13
2019-04-07T04:25:38.503Z,13.40
2019-04-07T04:28:46.224Z,13.85
2019-04-07T04:31:52.713Z,13.85
2019-04-07T04:34:59.362Z,13.55
2019-04-07T04:38:06.288Z,13.15
2019-04-07T04:41:11.968Z,13.13
2019-04-07T04:44:18.600Z,13.88
2019-04-07T04:47:25.179Z,13.40
2019-04-07T04:50:32.604Z,13.53
2019-04-07T04:53:38.258Z,14.05
2019-04-07T04:56:44.803Z,13.40
2019-04-07T04:59:50.724Z,13.40
2019-04-07T05:02:57.009Z,12.68
2019-04-07T05:06:03.583Z,12.28
2019-04-07T05:09:09.740Z,12.47
2019-04-07T05:12:15.357Z,12.47
2019-04-07T05:15:21.050Z,12.07
2019-04-07T05:18:26.878Z,11.73
2019-04-07T05:21:32.734Z,12.73
2019-04-07T05:24:38.370Z,12.25
2019-04-07T05:27:44.696Z,11.18
2019-04-07T05:30:50.296Z,11.75
2019-04-07T05:33:56.565Z,12.85
2019-04-07T05:37:02.314Z,12.05
2019-04-07T05:40:10.132Z,11.68
2019-04-07T05:43:16.121Z,12.13
2019-04-07T05:46:21.819Z,11.97
2019-04-07T05:49:28.526Z,12.03
2019-04-07T05:52:38.574Z,12.07
2019-04-07T05:55:41.573Z,11.83
2019-04-07T05:58:47.234Z,11.85
2019-04-07T06:01:59.364Z,12.18
2019-04-07T06:05:00.362Z,12.78
2019-04-07T06:08:22.428Z,13.13
2019-04-07T06:11:14.785Z,12.03
2019-04-07T06:14:20.527Z,12.73
2019-04-07T06:17:27.458Z,12.43
2019-04-07T06:20:35.024Z,11.85
2019-04-07T06:23:43.209Z,11.70
2019-04-07T06:26:49.929Z,12.58
2019-04-07T06:29:59.598Z,12.05
2019-04-07T06:33:05.551Z,12.03
2019-04-07T06:36:13.153Z,12.78
2019-04-07T06:39:19.939Z,11.73
2019-04-07T06:42:26.670Z,12.28
2019-04-07T06:45:37.793Z,11.73
2019-04-07T06:49:02.658Z,11.83
2019-04-07T06:52:18.288Z,12.53
2019-04-07T06:55:36.208Z,12.28
2019-04-07T06:59:04.667Z,12.18
2019-04-07T07:02:30.233Z,11.90
2019-04-07T07:05:48.502Z,12.40
2019-04-07T07:09:13.787Z,11.33
2019-04-07T07:12:39.131Z,12.63
2019-04-07T07:16:09.559Z,11.48
2019-04-07T07:19:45.878Z,11.68
2019-04-07T07:22:57.248Z,12.07
2019-04-07T07:26:05.070Z,11.68
2019-04-07T07:29:13.235Z,12.25
2019-04-07T07:32:18.125Z,11.68
2019-04-07T07:35:24.357Z,11.12
2019-04-07T07:38:32.373Z,11.78
2019-04-07T07:41:37.811Z,12.07
2019-04-07T07:44:43.891Z,12.25
2019-04-07T07:47:53.274Z,12.23
2019-04-07T07:50:56.890Z,12.13
2019-04-07T07:54:03.591Z,12.75
2019-04-07T07:57:09.215Z,12.50
2019-04-07T08:00:15.617Z,11.12
2019-04-07T08:03:22.834Z,11.65
2019-04-07T08:06:29.426Z,11.50
2019-04-07T08:09:35.269Z,11.95
2019-04-07T08:12:41.205Z,11.78
2019-04-07T08:15:47.003Z,12.05
2019-04-07T08:18:52.680Z,11.45
2019-04-07T08:21:58.489Z,11.33
2019-04-07T08:25:04.227Z,11.48
2019-04-07T08:28:09.934Z,10.80
2019-04-07T08:31:19.021Z,11.43
2019-04-07T08:34:23.203Z,11.48
2019-04-07T08:37:29.594Z,10.78
2019-04-07T08:40:36.901Z,10.93
2019-04-07T08:43:42.585Z,10.95
2019-04-07T08:46:48.546Z,10.95
2019-04-07T08:49:56.846Z,10.48
2019-04-07T08:53:02.115Z,10.15
2019-04-07T08:56:08.862Z,10.93
2019-04-07T08:59:17.011Z,11.25
2019-04-07T09:02:26.056Z,11.28
2019-04-07T09:05:32.170Z,10.50
2019-04-07T09:08:39.017Z,11.33
2019-04-07T09:11:45.899Z,10.32
2019-04-07T09:14:51.763Z,10.80
2019-04-07T09:18:04.424Z,10.50
2019-04-07T09:21:37.231Z,12.00
2019-04-07T09:24:52.101Z,11.30
2019-04-07T09:28:23.918Z,11.75
2019-04-07T09:31:47.688Z,11.30
2019-04-07T09:35:15.568Z,11.70
2019-04-07T09:38:38.805Z,11.05
2019-04-07T09:42:03.072Z,11.78
2019-04-07T09:45:33.788Z,11.55
2019-04-07T09:48:55.434Z,11.08
2019-04-07T09:52:10.232Z,11.70
2019-04-07T09:55:45.107Z,12.43
2019-04-07T09:59:15.114Z,11.65
2019-04-07T10:02:31.890Z,12.47
2019-04-07T10:05:59.762Z,11.45
2019-04-07T10:09:29.314Z,12.00
2019-04-07T10:12:57.598Z,11.65
2019-04-07T10:16:33.877Z,11.18
2019-04-07T10:20:04.373Z,11.63
2019-04-07T10:23:38.714Z,11.15
2019-04-07T10:27:06.982Z,13.00
2019-04-07T10:30:21.517Z,13.40
2019-04-07T10:33:45.991Z,11.90
2019-04-07T10:37:17.062Z,11.35
2019-04-07T10:40:31.134Z,12.73
2019-04-07T10:43:54.005Z,11.73
2019-04-07T10:47:18.407Z,12.58
2019-04-07T10:50:36.807Z,11.50
2019-04-07T10:54:08.068Z,12.55
2019-04-07T10:57:45.081Z,12.47
2019-04-07T11:00:59.722Z,12.25
2019-04-07T11:04:34.085Z,11.88
2019-04-07T11:07:58.862Z,11.40
2019-04-07T11:11:23.126Z,12.33
2019-04-07T11:14:44.482Z,11.20
2019-04-07T11:18:05.198Z,10.13
2019-04-07T11:21:32.524Z,11.18
2019-04-07T11:25:06.424Z,10.90
2019-04-07T11:28:28.814Z,10.65
2019-04-07T11:31:38.521Z,10.85
2019-04-07T11:34:59.533Z,10.18
2019-04-07T11:38:24.445Z,11.08
2019-04-07T11:42:01.067Z,10.70
2019-04-07T11:45:27.688Z,10.75
2019-04-07T11:48:46.670Z,11.30
2019-04-07T11:52:11.429Z,12.73
2019-04-07T11:55:31.771Z,12.30
2019-04-07T11:59:00.688Z,15.70
2019-04-07T12:02:42.347Z,19.02
2019-04-07T12:06:01.349Z,17.20
2019-04-07T12:09:32.717Z,17.10
2019-04-07T12:12:51.794Z,15.55
2019-04-07T12:16:20.195Z,15.48
2019-04-07T12:19:40.086Z,14.93
2019-04-07T12:23:01.588Z,15.68
2019-04-07T12:26:22.463Z,13.48
2019-04-07T12:29:42.813Z,14.40
2019-04-07T12:33:08.695Z,14.00
2019-04-07T12:36:34.349Z,14.23
2019-04-07T12:39:52.215Z,14.55
2019-04-07T12:43:03.492Z,12.80
2019-04-07T12:46:15.561Z,15.55
2019-04-07T12:49:44.419Z,13.22
2019-04-07T12:52:57.777Z,12.58
2019-04-07T12:56:22.102Z,18.48
2019-04-07T12:59:48.725Z,13.38
2019-04-07T13:02:59.763Z,13.18
2019-04-07T13:06:22.603Z,24.35
2019-04-07T13:09:46.137Z,23.77
2019-04-07T13:13:01.650Z,14.73
2019-04-07T13:16:30.907Z,13.60
2019-04-07T13:19:58.159Z,11.88
2019-04-07T13:23:13.606Z,11.45
2019-04-07T13:26:41.212Z,11.88
2019-04-07T13:30:16.989Z,10.98
2019-04-07T13:33:38.105Z,11.18
2019-04-07T13:37:12.449Z,11.80
2019-04-07T13:40:50.036Z,11.10
2019-04-07T13:44:23.631Z,11.78
2019-04-07T13:47:48.130Z,12.03
2019-04-07T13:51:12.852Z,10.78
2019-04-07T13:54:40.469Z,10.80
2019-04-07T13:58:14.993Z,10.75
2019-04-07T14:01:25.718Z,10.70
2019-04-07T14:04:42.410Z,9.90
2019-04-07T14:12:41.186Z,9.95
2019-04-07T14:16:09.420Z,10.10
2019-04-07T14:19:34.350Z,9.38
2019-04-07T14:23:02.142Z,9.70
2019-04-07T14:26:20.656Z,9.30
2019-04-07T14:29:45.954Z,9.45
2019-04-07T14:33:10.021Z,9.23
2019-04-07T14:36:46.690Z,9.45
2019-04-07T14:40:10.858Z,9.35
2019-04-07T14:43:19.011Z,9.60
2019-04-07T14:46:43.780Z,9.43
2019-04-07T14:50:07.960Z,8.93
2019-04-07T14:53:21.080Z,9.35
2019-04-07T14:56:45.313Z,9.08
2019-04-07T14:59:59.001Z,9.18
2019-04-07T15:03:05.192Z,9.03
2019-04-07T15:06:10.972Z,8.83
2019-04-07T15:09:18.895Z,9.05
2019-04-07T15:12:31.358Z,9.33
2019-04-07T15:15:37.255Z,9.40
2019-04-07T15:18:42.954Z,9.03
2019-04-07T15:21:52.117Z,8.88
2019-04-07T15:24:58.064Z,9.30
2019-04-07T15:28:04.403Z,9.33
2019-04-07T15:31:10.234Z,8.65
2019-04-07T15:34:15.849Z,9.33
2019-04-07T15:37:23.771Z,9.28
2019-04-07T15:40:32.680Z,8.80
2019-04-07T15:43:37.191Z,8.58
2019-04-07T15:46:43.726Z,8.95
2019-04-07T15:49:49.610Z,8.40
2019-04-07T15:52:55.308Z,9.40
2019-04-07T15:56:04.802Z,8.90
2019-04-07T15:59:08.786Z,9.48
2019-04-07T16:02:14.792Z,9.55
2019-04-07T16:05:22.654Z,9.00
2019-04-07T16:08:29.966Z,8.75
2019-04-07T16:11:35.902Z,8.58
2019-04-07T16:14:44.270Z,9.08
2019-04-07T16:17:49.125Z,9.15
2019-04-07T16:20:54.909Z,9.20
2019-04-07T16:24:02.857Z,8.65
2019-04-07T16:27:08.992Z,8.73
2019-04-07T16:30:19.151Z,9.28
2019-04-07T16:33:25.075Z,8.70
2019-04-07T16:36:32.492Z,8.58
2019-04-07T16:39:38.774Z,8.93
2019-04-07T16:43:00.383Z,8.83
2019-04-07T16:45:53.453Z,9.25
2019-04-07T16:48:59.810Z,8.80
2019-04-07T16:52:05.922Z,9.03
2019-04-07T16:55:48.867Z,9.40
2019-04-07T16:58:53.402Z,9.05
2019-04-07T17:01:59.226Z,8.65
2019-04-07T17:05:06.727Z,9.08
2019-04-07T17:08:17.751Z,9.63
2019-04-07T17:11:20.741Z,8.98
2019-04-07T17:14:26.918Z,8.85
2019-04-07T17:17:33.631Z,9.05
2019-04-07T17:20:41.172Z,9.65
2019-04-07T17:23:47.666Z,9.28
2019-04-07T17:26:53.516Z,9.45
2019-04-07T17:29:59.234Z,8.63
2019-04-07T17:33:06.817Z,9.40
2019-04-07T17:36:17.663Z,9.10
2019-04-07T17:39:46.873Z,9.30
2019-04-07T17:42:54.229Z,8.78
2019-04-07T17:46:13.098Z,8.83
2019-04-07T17:49:50.385Z,8.58
2019-04-07T17:53:05.322Z,8.98
2019-04-07T17:56:36.840Z,9.03
2019-04-07T17:59:55.042Z,8.90
2019-04-07T18:03:11.844Z,8.68
2019-04-07T18:06:36.454Z,8.73
2019-04-07T18:10:22.534Z,8.23
2019-04-07T18:14:05.756Z,8.98
2019-04-07T18:17:38.585Z,7.90
2019-04-07T18:21:15.442Z,8.43
2019-04-07T18:24:32.149Z,8.08
2019-04-07T18:28:03.381Z,7.65
2019-04-07T18:31:17.862Z,8.68
2019-04-07T18:34:46.487Z,7.67
2019-04-07T18:38:10.259Z,8.03
2019-04-07T18:41:35.945Z,7.80
2019-04-07T18:44:55.331Z,7.78
2019-04-07T18:48:28.797Z,8.58
2019-04-07T18:51:52.247Z,8.68
2019-04-07T18:55:20.623Z,8.75
2019-04-07T18:58:51.058Z,9.03
2019-04-07T19:02:24.825Z,8.38
2019-04-07T19:05:58.582Z,7.85
2019-04-07T19:09:28.313Z,8.75
2019-04-07T19:13:07.839Z,8.53
2019-04-07T19:16:47.854Z,8.18
2019-04-07T19:20:10.808Z,7.08
2019-04-07T19:23:28.510Z,7.83
2019-04-07T19:26:57.353Z,7.83
2019-04-07T19:30:35.506Z,7.37
2019-04-07T19:34:12.987Z,8.08
2019-04-07T19:37:28.511Z,7.72
2019-04-07T19:40:47.997Z,7.72
2019-04-07T19:44:09.495Z,8.35
2019-04-07T19:47:37.044Z,8.40
2019-04-07T19:51:04.397Z,8.38
2019-04-07T19:54:37.885Z,8.33
2019-04-07T19:58:21.835Z,8.40
2019-04-07T20:01:50.352Z,7.75
2019-04-07T20:05:17.348Z,8.20
2019-04-07T20:08:40.233Z,8.28
2019-04-07T20:12:23.009Z,8.30
2019-04-07T20:15:43.166Z,8.25
2019-04-07T20:19:16.583Z,8.73
2019-04-07T20:22:41.468Z,8.40
2019-04-07T20:26:15.711Z,7.97
2019-04-07T20:29:33.846Z,9.05
2019-04-07T20:32:56.189Z,9.08
2019-04-07T20:36:23.482Z,8.80
2019-04-07T20:39:47.711Z,8.05
2019-04-07T20:43:23.420Z,8.45
2019-04-07T20:46:47.737Z,8.43
2019-04-07T20:50:13.829Z,8.13
2019-04-07T20:53:35.129Z,8.63
2019-04-07T20:56:59.719Z,8.85
2019-04-07T21:00:28.584Z,8.05
2019-04-07T21:04:11.386Z,8.73
2019-04-07T21:07:35.422Z,8.65
2019-04-07T21:11:04.684Z,9.63
2019-04-07T21:14:18.654Z,9.28
2019-04-07T21:17:37.651Z,9.10
2019-04-07T21:20:55.495Z,11.55
2019-04-07T21:24:23.258Z,9.73
2019-04-07T21:27:38.665Z,10.72
2019-04-07T21:31:03.420Z,11.48
2019-04-07T21:34:29.617Z,11.45
2019-04-07T21:37:49.302Z,11.03
2019-04-07T21:41:14.378Z,11.57
2019-04-07T21:44:51.797Z,10.58
2019-04-07T21:48:16.397Z,10.60
2019-04-07T21:51:38.604Z,10.95
2019-04-07T21:54:57.553Z,10.98
2019-04-07T21:58:24.238Z,10.53
2019-04-07T22:01:55.104Z,10.75
2019-04-07T22:05:18.438Z,11.80
2019-04-07T22:08:32.670Z,10.95
2019-04-07T22:11:38.424Z,10.13
2019-04-07T22:14:45.393Z,10.88
2019-04-07T22:17:52.083Z,10.72
2019-04-07T22:20:57.845Z,11.03
2019-04-07T22:24:03.485Z,10.82
2019-04-07T22:27:09.357Z,10.00
2019-04-07T22:30:16.415Z,10.58
2019-04-07T22:33:25.131Z,10.13
2019-04-07T22:36:29.509Z,9.58
2019-04-07T22:39:35.142Z,10.15
2019-04-07T22:42:41.308Z,10.23
2019-04-07T22:45:55.043Z,9.85
2019-04-07T22:48:58.339Z,10.10
2019-04-07T22:52:03.486Z,10.25
2019-04-07T22:55:10.037Z,10.38
2019-04-07T22:58:16.014Z,10.28
2019-04-07T23:01:21.661Z,10.08
2019-04-07T23:08:55.412Z,10.50
2019-04-07T23:12:02.199Z,10.55
2019-04-07T23:15:09.140Z,9.90
2019-04-07T23:18:15.966Z,10.50
2019-04-07T23:21:21.605Z,10.00
2019-04-07T23:24:27.273Z,9.50
2019-04-07T23:27:33.873Z,9.13
2019-04-07T23:30:39.748Z,9.35
2019-04-07T23:33:45.926Z,9.90
2019-04-07T23:36:52.083Z,10.72
2019-04-07T23:39:58.083Z,9.90
2019-04-07T23:43:04.708Z,10.48
2019-04-07T23:46:20.642Z,10.35
2019-04-07T23:49:18.959Z,10.72
2019-04-07T23:52:25.155Z,10.75
2019-04-07T23:55:31.640Z,11.28
2019-04-07T23:58:37.766Z,11.38
